sensor_id;sensor_type;location;lat;lon;timestamp;P1;durP1;ratioP1;P2;durP2;ratioP2
28545;SDS011;15749;49.606;8.738;2024-01-30T00:01:22;8.57;;;7.43;;
28545;SDS011;15749;49.606;8.738;2024-01-30T00:03:52;7.73;;;6.63;;
28545;SDS011;15749;49.606;8.738;2024-01-30T00:06:21;9.00;;;7.20;;
28545;SDS011;15749;49.606;8.738;2024-01-30T00:08:50;8.77;;;6.87;;
28545;SDS011;15749;49.606;8.738;2024-01-30T00:11:20;9.50;;;7.33;;
28545;SDS011;15749;49.606;8.738;2024-01-30T00:13:51;8.53;;;7.30;;
28545;SDS011;15749;49.606;8.738;2024-01-30T00:16:20;8.83;;;7.47;;
28545;SDS011;15749;49.606;8.738;2024-01-30T00:18:51;8.93;;;8.03;;
28545;SDS011;15749;49.606;8.738;2024-01-30T00:21:21;7.70;;;6.73;;
28545;SDS011;15749;49.606;8.738;2024-01-30T00:23:50;7.80;;;7.00;;
28545;SDS011;15749;49.606;8.738;2024-01-30T00:26:19;6.57;;;5.90;;
28545;SDS011;15749;49.606;8.738;2024-01-30T00:28:48;6.47;;;5.47;;
28545;SDS011;15749;49.606;8.738;2024-01-30T00:31:19;7.30;;;6.20;;
28545;SDS011;15749;49.606;8.738;2024-01-30T00:33:48;7.30;;;6.57;;
28545;SDS011;15749;49.606;8.738;2024-01-30T00:36:17;6.47;;;5.53;;
28545;SDS011;15749;49.606;8.738;2024-01-30T00:38:46;7.30;;;6.60;;
28545;SDS011;15749;49.606;8.738;2024-01-30T00:41:17;7.87;;;7.00;;
28545;SDS011;15749;49.606;8.738;2024-01-30T00:43:46;9.50;;;7.93;;
28545;SDS011;15749;49.606;8.738;2024-01-30T00:46:17;8.00;;;7.20;;
28545;SDS011;15749;49.606;8.738;2024-01-30T00:48:46;8.60;;;7.70;;
28545;SDS011;15749;49.606;8.738;2024-01-30T00:51:15;7.07;;;6.37;;
28545;SDS011;15749;49.606;8.738;2024-01-30T00:53:44;7.13;;;6.43;;
28545;SDS011;15749;49.606;8.738;2024-01-30T00:56:14;7.43;;;6.67;;
28545;SDS011;15749;49.606;8.738;2024-01-30T00:58:45;6.47;;;5.87;;
28545;SDS011;15749;49.606;8.738;2024-01-30T01:01:14;6.77;;;6.07;;
28545;SDS011;15749;49.606;8.738;2024-01-30T01:03:45;6.77;;;6.07;;
28545;SDS011;15749;49.606;8.738;2024-01-30T01:06:16;6.83;;;6.07;;
28545;SDS011;15749;49.606;8.738;2024-01-30T01:08:45;8.03;;;6.97;;
28545;SDS011;15749;49.606;8.738;2024-01-30T01:11:14;6.80;;;5.93;;
28545;SDS011;15749;49.606;8.738;2024-01-30T01:13:43;7.17;;;6.43;;
28545;SDS011;15749;49.606;8.738;2024-01-30T01:16:12;7.27;;;6.53;;
28545;SDS011;15749;49.606;8.738;2024-01-30T01:18:43;6.70;;;6.00;;
28545;SDS011;15749;49.606;8.738;2024-01-30T01:21:12;5.90;;;5.30;;
28545;SDS011;15749;49.606;8.738;2024-01-30T01:23:41;5.13;;;4.63;;
28545;SDS011;15749;49.606;8.738;2024-01-30T01:26:10;6.23;;;5.37;;
28545;SDS011;15749;49.606;8.738;2024-01-30T01:28:40;5.80;;;5.20;;
28545;SDS011;15749;49.606;8.738;2024-01-30T01:31:09;5.90;;;5.30;;
28545;SDS011;15749;49.606;8.738;2024-01-30T01:33:39;5.60;;;5.00;;
28545;SDS011;15749;49.606;8.738;2024-01-30T01:36:09;4.23;;;3.83;;
28545;SDS011;15749;49.606;8.738;2024-01-30T01:38:38;4.60;;;4.20;;
28545;SDS011;15749;49.606;8.738;2024-01-30T01:41:07;4.43;;;4.03;;
28545;SDS011;15749;49.606;8.738;2024-01-30T01:43:36;4.70;;;4.30;;
28545;SDS011;15749;49.606;8.738;2024-01-30T01:46:06;4.50;;;4.10;;
28545;SDS011;15749;49.606;8.738;2024-01-30T01:48:36;4.57;;;4.17;;
28545;SDS011;15749;49.606;8.738;2024-01-30T01:51:07;5.20;;;4.70;;
28545;SDS011;15749;49.606;8.738;2024-01-30T01:53:38;6.10;;;5.50;;
28545;SDS011;15749;49.606;8.738;2024-01-30T01:56:07;6.20;;;5.10;;
28545;SDS011;15749;49.606;8.738;2024-01-30T01:58:37;5.30;;;4.80;;
28545;SDS011;15749;49.606;8.738;2024-01-30T02:01:07;5.10;;;4.60;;
28545;SDS011;15749;49.606;8.738;2024-01-30T02:03:36;5.53;;;4.87;;
28545;SDS011;15749;49.606;8.738;2024-01-30T02:06:07;6.13;;;5.50;;
28545;SDS011;15749;49.606;8.738;2024-01-30T02:08:36;6.10;;;4.97;;
28545;SDS011;15749;49.606;8.738;2024-01-30T02:11:07;4.80;;;4.40;;
28545;SDS011;15749;49.606;8.738;2024-01-30T02:13:37;6.07;;;5.30;;
28545;SDS011;15749;49.606;8.738;2024-01-30T02:16:06;5.40;;;4.90;;
28545;SDS011;15749;49.606;8.738;2024-01-30T02:18:35;5.87;;;5.27;;
28545;SDS011;15749;49.606;8.738;2024-01-30T02:21:10;6.03;;;5.33;;
28545;SDS011;15749;49.606;8.738;2024-01-30T02:23:40;5.07;;;4.57;;
28545;SDS011;15749;49.606;8.738;2024-01-30T02:26:11;5.53;;;4.93;;
28545;SDS011;15749;49.606;8.738;2024-01-30T02:28:40;5.43;;;4.83;;
28545;SDS011;15749;49.606;8.738;2024-01-30T02:31:09;6.50;;;5.43;;
28545;SDS011;15749;49.606;8.738;2024-01-30T02:33:38;5.60;;;5.00;;
28545;SDS011;15749;49.606;8.738;2024-01-30T02:36:07;6.07;;;5.47;;
28545;SDS011;15749;49.606;8.738;2024-01-30T02:38:38;6.00;;;5.20;;
28545;SDS011;15749;49.606;8.738;2024-01-30T02:41:07;6.30;;;5.70;;
28545;SDS011;15749;49.606;8.738;2024-01-30T02:43:36;5.73;;;5.10;;
28545;SDS011;15749;49.606;8.738;2024-01-30T02:46:05;5.87;;;5.27;;
28545;SDS011;15749;49.606;8.738;2024-01-30T02:48:34;5.60;;;5.03;;
28545;SDS011;15749;49.606;8.738;2024-01-30T02:51:05;6.00;;;5.40;;
28545;SDS011;15749;49.606;8.738;2024-01-30T02:53:34;5.50;;;5.00;;
28545;SDS011;15749;49.606;8.738;2024-01-30T02:56:05;5.43;;;4.93;;
28545;SDS011;15749;49.606;8.738;2024-01-30T02:58:37;6.10;;;5.00;;
28545;SDS011;15749;49.606;8.738;2024-01-30T03:01:06;4.90;;;4.40;;
28545;SDS011;15749;49.606;8.738;2024-01-30T03:03:35;5.43;;;4.83;;
28545;SDS011;15749;49.606;8.738;2024-01-30T03:06:05;5.90;;;4.53;;
28545;SDS011;15749;49.606;8.738;2024-01-30T03:08:34;6.40;;;4.90;;
28545;SDS011;15749;49.606;8.738;2024-01-30T03:11:03;5.80;;;5.17;;
28545;SDS011;15749;49.606;8.738;2024-01-30T03:13:34;6.00;;;5.37;;
28545;SDS011;15749;49.606;8.738;2024-01-30T03:16:03;6.40;;;5.33;;
28545;SDS011;15749;49.606;8.738;2024-01-30T03:18:33;5.13;;;4.63;;
28545;SDS011;15749;49.606;8.738;2024-01-30T03:21:02;5.40;;;4.83;;
28545;SDS011;15749;49.606;8.738;2024-01-30T03:23:31;5.80;;;5.13;;
28545;SDS011;15749;49.606;8.738;2024-01-30T03:26:01;5.37;;;4.83;;
28545;SDS011;15749;49.606;8.738;2024-01-30T03:28:33;5.53;;;4.93;;
28545;SDS011;15749;49.606;8.738;2024-01-30T03:31:02;5.33;;;4.83;;
28545;SDS011;15749;49.606;8.738;2024-01-30T03:33:31;5.30;;;4.80;;
28545;SDS011;15749;49.606;8.738;2024-01-30T03:36:02;5.13;;;4.50;;
28545;SDS011;15749;49.606;8.738;2024-01-30T03:38:32;5.40;;;4.83;;
28545;SDS011;15749;49.606;8.738;2024-01-30T03:41:01;5.13;;;4.40;;
28545;SDS011;15749;49.606;8.738;2024-01-30T03:43:31;5.40;;;4.60;;
28545;SDS011;15749;49.606;8.738;2024-01-30T03:46:01;5.30;;;4.80;;
28545;SDS011;15749;49.606;8.738;2024-01-30T03:48:31;4.97;;;4.57;;
28545;SDS011;15749;49.606;8.738;2024-01-30T03:51:00;4.50;;;4.10;;
28545;SDS011;15749;49.606;8.738;2024-01-30T03:53:29;5.00;;;4.50;;
28545;SDS011;15749;49.606;8.738;2024-01-30T03:55:58;4.87;;;4.40;;
28545;SDS011;15749;49.606;8.738;2024-01-30T03:58:28;5.00;;;4.50;;
28545;SDS011;15749;49.606;8.738;2024-01-30T04:00:58;5.57;;;4.97;;
28545;SDS011;15749;49.606;8.738;2024-01-30T04:03:27;6.00;;;5.10;;
28545;SDS011;15749;49.606;8.738;2024-01-30T04:05:56;4.30;;;3.90;;
28545;SDS011;15749;49.606;8.738;2024-01-30T04:08:25;5.70;;;4.90;;
28545;SDS011;15749;49.606;8.738;2024-01-30T04:10:54;5.43;;;4.93;;
28545;SDS011;15749;49.606;8.738;2024-01-30T04:13:24;5.13;;;4.67;;
28545;SDS011;15749;49.606;8.738;2024-01-30T04:15:53;6.27;;;5.50;;
28545;SDS011;15749;49.606;8.738;2024-01-30T04:18:25;6.03;;;5.40;;
28545;SDS011;15749;49.606;8.738;2024-01-30T04:20:54;5.00;;;4.43;;
28545;SDS011;15749;49.606;8.738;2024-01-30T04:23:23;4.07;;;3.67;;
28545;SDS011;15749;49.606;8.738;2024-01-30T04:25:52;4.90;;;4.40;;
28545;SDS011;15749;49.606;8.738;2024-01-30T04:28:21;5.53;;;4.47;;
28545;SDS011;15749;49.606;8.738;2024-01-30T04:30:50;4.93;;;4.43;;
28545;SDS011;15749;49.606;8.738;2024-01-30T04:33:20;4.93;;;4.50;;
28545;SDS011;15749;49.606;8.738;2024-01-30T04:35:50;5.07;;;4.57;;
28545;SDS011;15749;49.606;8.738;2024-01-30T04:38:19;5.00;;;4.50;;
28545;SDS011;15749;49.606;8.738;2024-01-30T04:40:48;4.97;;;4.27;;
28545;SDS011;15749;49.606;8.738;2024-01-30T04:43:17;4.60;;;4.20;;
28545;SDS011;15749;49.606;8.738;2024-01-30T04:45:47;4.50;;;4.10;;
28545;SDS011;15749;49.606;8.738;2024-01-30T04:48:17;4.20;;;3.80;;
28545;SDS011;15749;49.606;8.738;2024-01-30T04:50:46;4.40;;;4.00;;
28545;SDS011;15749;49.606;8.738;2024-01-30T04:53:16;4.50;;;3.80;;
28545;SDS011;15749;49.606;8.738;2024-01-30T04:55:46;4.60;;;4.00;;
28545;SDS011;15749;49.606;8.738;2024-01-30T04:58:15;4.27;;;3.87;;
28545;SDS011;15749;49.606;8.738;2024-01-30T05:00:44;3.73;;;3.33;;
28545;SDS011;15749;49.606;8.738;2024-01-30T05:03:18;4.20;;;3.80;;
28545;SDS011;15749;49.606;8.738;2024-01-30T05:05:49;5.00;;;4.17;;
28545;SDS011;15749;49.606;8.738;2024-01-30T05:08:20;4.70;;;4.00;;
28545;SDS011;15749;49.606;8.738;2024-01-30T05:10:49;4.80;;;3.97;;
28545;SDS011;15749;49.606;8.738;2024-01-30T05:13:18;4.43;;;4.03;;
28545;SDS011;15749;49.606;8.738;2024-01-30T05:15:47;3.90;;;3.60;;
28545;SDS011;15749;49.606;8.738;2024-01-30T05:18:16;4.37;;;3.97;;
28545;SDS011;15749;49.606;8.738;2024-01-30T05:20:46;4.00;;;3.60;;
28545;SDS011;15749;49.606;8.738;2024-01-30T05:23:15;4.03;;;3.63;;
28545;SDS011;15749;49.606;8.738;2024-01-30T05:25:45;4.20;;;3.77;;
28545;SDS011;15749;49.606;8.738;2024-01-30T05:28:14;4.33;;;3.93;;
28545;SDS011;15749;49.606;8.738;2024-01-30T05:30:44;4.50;;;3.97;;
28545;SDS011;15749;49.606;8.738;2024-01-30T05:33:13;4.20;;;3.80;;
28545;SDS011;15749;49.606;8.738;2024-01-30T05:35:42;4.20;;;3.80;;
28545;SDS011;15749;49.606;8.738;2024-01-30T05:38:11;5.80;;;3.63;;
28545;SDS011;15749;49.606;8.738;2024-01-30T05:40:41;4.30;;;3.87;;
28545;SDS011;15749;49.606;8.738;2024-01-30T05:43:11;4.30;;;3.90;;
28545;SDS011;15749;49.606;8.738;2024-01-30T05:45:40;4.73;;;4.23;;
28545;SDS011;15749;49.606;8.738;2024-01-30T05:48:10;4.80;;;4.23;;
28545;SDS011;15749;49.606;8.738;2024-01-30T05:50:39;4.23;;;3.83;;
28545;SDS011;15749;49.606;8.738;2024-01-30T05:53:08;4.20;;;3.80;;
28545;SDS011;15749;49.606;8.738;2024-01-30T05:55:37;4.23;;;3.83;;
28545;SDS011;15749;49.606;8.738;2024-01-30T05:58:06;4.00;;;3.60;;
28545;SDS011;15749;49.606;8.738;2024-01-30T06:00:36;3.50;;;3.20;;
28545;SDS011;15749;49.606;8.738;2024-01-30T06:03:06;4.73;;;4.23;;
28545;SDS011;15749;49.606;8.738;2024-01-30T06:05:35;4.50;;;3.40;;
28545;SDS011;15749;49.606;8.738;2024-01-30T06:08:05;4.97;;;4.37;;
28545;SDS011;15749;49.606;8.738;2024-01-30T06:10:35;4.70;;;4.20;;
28545;SDS011;15749;49.606;8.738;2024-01-30T06:13:04;4.10;;;3.70;;
28545;SDS011;15749;49.606;8.738;2024-01-30T06:15:33;4.37;;;3.87;;
28545;SDS011;15749;49.606;8.738;2024-01-30T06:18:04;4.80;;;4.17;;
28545;SDS011;15749;49.606;8.738;2024-01-30T06:20:33;4.20;;;3.80;;
28545;SDS011;15749;49.606;8.738;2024-01-30T06:23:03;4.27;;;3.87;;
28545;SDS011;15749;49.606;8.738;2024-01-30T06:25:32;4.80;;;4.10;;
28545;SDS011;15749;49.606;8.738;2024-01-30T06:28:01;4.43;;;4.03;;
28545;SDS011;15749;49.606;8.738;2024-01-30T06:30:30;4.40;;;4.00;;
28545;SDS011;15749;49.606;8.738;2024-01-30T06:32:59;4.50;;;4.10;;
28545;SDS011;15749;49.606;8.738;2024-01-30T06:35:30;4.90;;;4.50;;
28545;SDS011;15749;49.606;8.738;2024-01-30T06:37:59;4.40;;;3.97;;
28545;SDS011;15749;49.606;8.738;2024-01-30T06:40:28;4.67;;;4.27;;
28545;SDS011;15749;49.606;8.738;2024-01-30T06:42:57;4.10;;;3.63;;
28545;SDS011;15749;49.606;8.738;2024-01-30T06:45:26;4.63;;;3.93;;
28545;SDS011;15749;49.606;8.738;2024-01-30T06:47:55;4.50;;;4.07;;
28545;SDS011;15749;49.606;8.738;2024-01-30T06:50:24;4.47;;;4.07;;
28545;SDS011;15749;49.606;8.738;2024-01-30T06:52:55;4.10;;;3.70;;
28545;SDS011;15749;49.606;8.738;2024-01-30T06:55:24;4.63;;;4.13;;
28545;SDS011;15749;49.606;8.738;2024-01-30T06:57:53;4.53;;;3.90;;
28545;SDS011;15749;49.606;8.738;2024-01-30T07:00:23;3.63;;;3.33;;
28545;SDS011;15749;49.606;8.738;2024-01-30T07:02:54;4.10;;;3.70;;
28545;SDS011;15749;49.606;8.738;2024-01-30T07:05:23;4.00;;;3.60;;
28545;SDS011;15749;49.606;8.738;2024-01-30T07:07:52;4.40;;;3.70;;
28545;SDS011;15749;49.606;8.738;2024-01-30T07:10:23;3.60;;;3.30;;
28545;SDS011;15749;49.606;8.738;2024-01-30T07:12:52;3.20;;;2.90;;
28545;SDS011;15749;49.606;8.738;2024-01-30T07:15:22;4.03;;;3.63;;
28545;SDS011;15749;49.606;8.738;2024-01-30T07:17:51;4.27;;;3.80;;
28545;SDS011;15749;49.606;8.738;2024-01-30T07:20:20;4.13;;;3.80;;
28545;SDS011;15749;49.606;8.738;2024-01-30T07:22:49;4.03;;;3.63;;
28545;SDS011;15749;49.606;8.738;2024-01-30T07:25:18;3.90;;;3.50;;
28545;SDS011;15749;49.606;8.738;2024-01-30T07:27:50;3.27;;;2.97;;
28545;SDS011;15749;49.606;8.738;2024-01-30T07:30:19;3.23;;;2.93;;
28545;SDS011;15749;49.606;8.738;2024-01-30T07:32:48;2.87;;;2.67;;
28545;SDS011;15749;49.606;8.738;2024-01-30T07:35:17;3.47;;;3.17;;
28545;SDS011;15749;49.606;8.738;2024-01-30T07:37:47;3.30;;;3.00;;
28545;SDS011;15749;49.606;8.738;2024-01-30T07:40:16;3.07;;;2.77;;
28545;SDS011;15749;49.606;8.738;2024-01-30T07:42:47;3.47;;;3.17;;
28545;SDS011;15749;49.606;8.738;2024-01-30T07:45:18;3.60;;;3.30;;
28545;SDS011;15749;49.606;8.738;2024-01-30T07:47:49;3.33;;;3.03;;
28545;SDS011;15749;49.606;8.738;2024-01-30T07:50:18;3.50;;;3.20;;
28545;SDS011;15749;49.606;8.738;2024-01-30T07:52:47;4.00;;;3.07;;
28545;SDS011;15749;49.606;8.738;2024-01-30T07:55:18;4.17;;;3.77;;
28545;SDS011;15749;49.606;8.738;2024-01-30T07:57:49;3.40;;;3.10;;
28545;SDS011;15749;49.606;8.738;2024-01-30T08:00:20;3.30;;;3.00;;
28545;SDS011;15749;49.606;8.738;2024-01-30T08:02:50;3.50;;;3.20;;
28545;SDS011;15749;49.606;8.738;2024-01-30T08:05:21;4.40;;;3.90;;
28545;SDS011;15749;49.606;8.738;2024-01-30T08:07:51;4.17;;;3.77;;
28545;SDS011;15749;49.606;8.738;2024-01-30T08:10:21;4.63;;;4.13;;
28545;SDS011;15749;49.606;8.738;2024-01-30T08:12:51;4.53;;;3.83;;
28545;SDS011;15749;49.606;8.738;2024-01-30T08:15:20;4.60;;;4.20;;
28545;SDS011;15749;49.606;8.738;2024-01-30T08:17:50;4.50;;;3.87;;
28545;SDS011;15749;49.606;8.738;2024-01-30T08:20:23;6.83;;;4.63;;
28545;SDS011;15749;49.606;8.738;2024-01-30T08:22:54;6.83;;;4.90;;
28545;SDS011;15749;49.606;8.738;2024-01-30T08:25:23;5.97;;;5.10;;
28545;SDS011;15749;49.606;8.738;2024-01-30T08:27:54;5.83;;;5.23;;
28545;SDS011;15749;49.606;8.738;2024-01-30T08:30:25;4.93;;;4.43;;
28545;SDS011;15749;49.606;8.738;2024-01-30T08:32:54;4.50;;;4.10;;
28545;SDS011;15749;49.606;8.738;2024-01-30T08:35:25;4.60;;;4.20;;
28545;SDS011;15749;49.606;8.738;2024-01-30T08:37:55;5.77;;;5.17;;
28545;SDS011;15749;49.606;8.738;2024-01-30T08:40:24;5.10;;;4.60;;
28545;SDS011;15749;49.606;8.738;2024-01-30T08:42:56;4.33;;;3.93;;
28545;SDS011;15749;49.606;8.738;2024-01-30T08:45:25;4.53;;;4.13;;
28545;SDS011;15749;49.606;8.738;2024-01-30T08:47:54;4.90;;;4.30;;
28545;SDS011;15749;49.606;8.738;2024-01-30T08:50:24;5.80;;;4.50;;
28545;SDS011;15749;49.606;8.738;2024-01-30T08:52:53;6.23;;;5.30;;
28545;SDS011;15749;49.606;8.738;2024-01-30T08:55:22;6.17;;;5.57;;
28545;SDS011;15749;49.606;8.738;2024-01-30T08:57:51;4.40;;;4.00;;
28545;SDS011;15749;49.606;8.738;2024-01-30T09:00:22;5.00;;;4.60;;
28545;SDS011;15749;49.606;8.738;2024-01-30T09:02:51;4.67;;;4.27;;
28545;SDS011;15749;49.606;8.738;2024-01-30T09:05:20;4.80;;;4.40;;
28545;SDS011;15749;49.606;8.738;2024-01-30T09:07:49;6.27;;;4.43;;
28545;SDS011;15749;49.606;8.738;2024-01-30T09:10:19;5.20;;;4.70;;
28545;SDS011;15749;49.606;8.738;2024-01-30T09:12:48;5.23;;;4.67;;
28545;SDS011;15749;49.606;8.738;2024-01-30T09:15:18;4.90;;;4.50;;
28545;SDS011;15749;49.606;8.738;2024-01-30T09:17:51;5.27;;;4.20;;
28545;SDS011;15749;49.606;8.738;2024-01-30T09:20:21;4.97;;;4.57;;
28545;SDS011;15749;49.606;8.738;2024-01-30T09:22:50;5.53;;;4.83;;
28545;SDS011;15749;49.606;8.738;2024-01-30T09:25:19;4.30;;;3.90;;
28545;SDS011;15749;49.606;8.738;2024-01-30T09:27:48;4.60;;;4.03;;
28545;SDS011;15749;49.606;8.738;2024-01-30T09:30:17;5.67;;;5.10;;
28545;SDS011;15749;49.606;8.738;2024-01-30T09:32:46;5.30;;;4.80;;
28545;SDS011;15749;49.606;8.738;2024-01-30T09:35:17;5.77;;;5.17;;
28545;SDS011;15749;49.606;8.738;2024-01-30T09:37:46;6.00;;;5.40;;
28545;SDS011;15749;49.606;8.738;2024-01-30T09:40:16;6.10;;;5.50;;
28545;SDS011;15749;49.606;8.738;2024-01-30T09:42:46;5.37;;;4.87;;
28545;SDS011;15749;49.606;8.738;2024-01-30T09:45:17;5.57;;;4.97;;
28545;SDS011;15749;49.606;8.738;2024-01-30T09:47:47;6.40;;;5.80;;
28545;SDS011;15749;49.606;8.738;2024-01-30T09:50:18;7.20;;;6.50;;
28545;SDS011;15749;49.606;8.738;2024-01-30T09:52:47;6.80;;;6.10;;
28545;SDS011;15749;49.606;8.738;2024-01-30T09:55:17;6.37;;;5.77;;
28545;SDS011;15749;49.606;8.738;2024-01-30T09:57:47;6.83;;;6.23;;
28545;SDS011;15749;49.606;8.738;2024-01-30T10:00:16;6.17;;;5.57;;
28545;SDS011;15749;49.606;8.738;2024-01-30T10:02:45;8.23;;;7.40;;
28545;SDS011;15749;49.606;8.738;2024-01-30T10:05:15;10.17;;;9.03;;
28545;SDS011;15749;49.606;8.738;2024-01-30T10:07:52;9.67;;;8.67;;
28545;SDS011;15749;49.606;8.738;2024-01-30T10:10:23;7.73;;;6.97;;
28545;SDS011;15749;49.606;8.738;2024-01-30T10:12:53;8.50;;;6.73;;
28545;SDS011;15749;49.606;8.738;2024-01-30T10:15:22;7.63;;;6.80;;
28545;SDS011;15749;49.606;8.738;2024-01-30T10:17:52;8.37;;;7.50;;
28545;SDS011;15749;49.606;8.738;2024-01-30T10:20:23;9.37;;;7.97;;
28545;SDS011;15749;49.606;8.738;2024-01-30T10:22:53;8.60;;;7.70;;
28545;SDS011;15749;49.606;8.738;2024-01-30T10:25:25;7.53;;;6.83;;
28545;SDS011;15749;49.606;8.738;2024-01-30T10:27:54;8.93;;;8.03;;
28545;SDS011;15749;49.606;8.738;2024-01-30T10:30:24;10.17;;;8.03;;
28545;SDS011;15749;49.606;8.738;2024-01-30T10:32:53;8.50;;;7.60;;
28545;SDS011;15749;49.606;8.738;2024-01-30T10:35:24;8.57;;;7.67;;
28545;SDS011;15749;49.606;8.738;2024-01-30T10:37:53;8.73;;;7.77;;
28545;SDS011;15749;49.606;8.738;2024-01-30T10:40:28;9.50;;;8.47;;
28545;SDS011;15749;49.606;8.738;2024-01-30T10:42:59;8.90;;;7.97;;
28545;SDS011;15749;49.606;8.738;2024-01-30T10:45:31;9.73;;;8.03;;
28545;SDS011;15749;49.606;8.738;2024-01-30T10:48:04;9.20;;;8.17;;
28545;SDS011;15749;49.606;8.738;2024-01-30T10:50:38;8.57;;;7.67;;
28545;SDS011;15749;49.606;8.738;2024-01-30T10:53:20;8.87;;;7.97;;
28545;SDS011;15749;49.606;8.738;2024-01-30T10:55:51;8.50;;;7.63;;
28545;SDS011;15749;49.606;8.738;2024-01-30T10:58:20;9.03;;;8.13;;
28545;SDS011;15749;49.606;8.738;2024-01-30T11:00:50;8.77;;;7.87;;
28545;SDS011;15749;49.606;8.738;2024-01-30T11:03:21;7.63;;;6.93;;
28545;SDS011;15749;49.606;8.738;2024-01-30T11:05:52;11.10;;;9.20;;
28545;SDS011;15749;49.606;8.738;2024-01-30T11:08:24;10.23;;;8.93;;
28545;SDS011;15749;49.606;8.738;2024-01-30T11:10:56;10.87;;;9.03;;
28545;SDS011;15749;49.606;8.738;2024-01-30T11:13:26;9.67;;;8.30;;
28545;SDS011;15749;49.606;8.738;2024-01-30T11:16:00;8.30;;;7.30;;
28545;SDS011;15749;49.606;8.738;2024-01-30T11:18:32;9.63;;;8.57;;
28545;SDS011;15749;49.606;8.738;2024-01-30T11:21:06;8.10;;;7.30;;
28545;SDS011;15749;49.606;8.738;2024-01-30T11:23:35;7.70;;;6.90;;
28545;SDS011;15749;49.606;8.738;2024-01-30T11:26:04;7.90;;;6.23;;
28545;SDS011;15749;49.606;8.738;2024-01-30T11:28:33;5.90;;;5.30;;
28545;SDS011;15749;49.606;8.738;2024-01-30T11:31:04;4.33;;;3.50;;
28545;SDS011;15749;49.606;8.738;2024-01-30T11:33:35;4.60;;;3.87;;
28545;SDS011;15749;49.606;8.738;2024-01-30T11:36:07;3.37;;;2.97;;
28545;SDS011;15749;49.606;8.738;2024-01-30T11:38:39;3.37;;;3.00;;
28545;SDS011;15749;49.606;8.738;2024-01-30T11:41:13;2.93;;;2.57;;
28545;SDS011;15749;49.606;8.738;2024-01-30T11:43:51;3.63;;;3.33;;
28545;SDS011;15749;49.606;8.738;2024-01-30T11:46:24;3.30;;;3.00;;
28545;SDS011;15749;49.606;8.738;2024-01-30T11:48:55;3.53;;;2.97;;
28545;SDS011;15749;49.606;8.738;2024-01-30T11:51:26;3.57;;;3.27;;
28545;SDS011;15749;49.606;8.738;2024-01-30T11:53:55;3.13;;;2.90;;
28545;SDS011;15749;49.606;8.738;2024-01-30T11:56:24;3.33;;;2.93;;
28545;SDS011;15749;49.606;8.738;2024-01-30T11:58:54;3.57;;;2.83;;
28545;SDS011;15749;49.606;8.738;2024-01-30T12:01:23;3.23;;;2.93;;
28545;SDS011;15749;49.606;8.738;2024-01-30T12:03:55;4.23;;;3.20;;
28545;SDS011;15749;49.606;8.738;2024-01-30T12:06:27;2.93;;;2.60;;
28545;SDS011;15749;49.606;8.738;2024-01-30T12:08:57;4.20;;;3.70;;
28545;SDS011;15749;49.606;8.738;2024-01-30T12:11:27;3.57;;;3.27;;
28545;SDS011;15749;49.606;8.738;2024-01-30T12:13:57;3.73;;;3.00;;
28545;SDS011;15749;49.606;8.738;2024-01-30T12:16:26;3.40;;;3.10;;
28545;SDS011;15749;49.606;8.738;2024-01-30T12:18:59;2.60;;;2.40;;
28545;SDS011;15749;49.606;8.738;2024-01-30T12:21:31;2.37;;;2.17;;
28545;SDS011;15749;49.606;8.738;2024-01-30T12:24:00;3.17;;;2.40;;
28545;SDS011;15749;49.606;8.738;2024-01-30T12:26:29;2.47;;;2.27;;
28545;SDS011;15749;49.606;8.738;2024-01-30T12:28:58;2.50;;;2.30;;
28545;SDS011;15749;49.606;8.738;2024-01-30T12:31:31;2.33;;;2.13;;
28545;SDS011;15749;49.606;8.738;2024-01-30T12:34:01;2.90;;;2.60;;
28545;SDS011;15749;49.606;8.738;2024-01-30T12:36:32;3.53;;;3.23;;
28545;SDS011;15749;49.606;8.738;2024-01-30T12:39:02;3.17;;;2.83;;
28545;SDS011;15749;49.606;8.738;2024-01-30T12:41:32;2.97;;;2.47;;
28545;SDS011;15749;49.606;8.738;2024-01-30T12:44:02;2.93;;;2.73;;
28545;SDS011;15749;49.606;8.738;2024-01-30T12:46:31;3.67;;;3.10;;
28545;SDS011;15749;49.606;8.738;2024-01-30T12:49:03;2.70;;;2.50;;
28545;SDS011;15749;49.606;8.738;2024-01-30T12:51:35;3.10;;;2.80;;
28545;SDS011;15749;49.606;8.738;2024-01-30T12:56:34;4.70;;;3.43;;
28545;SDS011;15749;49.606;8.738;2024-01-30T12:59:03;3.93;;;3.60;;
28545;SDS011;15749;49.606;8.738;2024-01-30T13:01:32;5.10;;;3.60;;
28545;SDS011;15749;49.606;8.738;2024-01-30T13:04:02;4.10;;;3.70;;
28545;SDS011;15749;49.606;8.738;2024-01-30T13:06:31;4.67;;;4.17;;
28545;SDS011;15749;49.606;8.738;2024-01-30T13:09:02;3.47;;;3.17;;
28545;SDS011;15749;49.606;8.738;2024-01-30T13:11:33;4.23;;;3.60;;
28545;SDS011;15749;49.606;8.738;2024-01-30T13:14:02;2.87;;;2.67;;
28545;SDS011;15749;49.606;8.738;2024-01-30T13:16:31;3.80;;;3.40;;
28545;SDS011;15749;49.606;8.738;2024-01-30T13:19:00;3.40;;;2.87;;
28545;SDS011;15749;49.606;8.738;2024-01-30T13:21:30;3.43;;;3.13;;
28545;SDS011;15749;49.606;8.738;2024-01-30T13:23:59;4.27;;;3.87;;
28545;SDS011;15749;49.606;8.738;2024-01-30T13:26:31;4.17;;;3.77;;
28545;SDS011;15749;49.606;8.738;2024-01-30T13:29:00;2.63;;;2.43;;
28545;SDS011;15749;49.606;8.738;2024-01-30T13:31:29;3.73;;;3.43;;
28545;SDS011;15749;49.606;8.738;2024-01-30T13:33:59;3.97;;;3.50;;
28545;SDS011;15749;49.606;8.738;2024-01-30T13:36:30;3.67;;;3.37;;
28545;SDS011;15749;49.606;8.738;2024-01-30T13:38:59;2.73;;;2.53;;
28545;SDS011;15749;49.606;8.738;2024-01-30T13:41:30;4.20;;;3.80;;
28545;SDS011;15749;49.606;8.738;2024-01-30T13:43:59;4.23;;;3.83;;
28545;SDS011;15749;49.606;8.738;2024-01-30T13:46:30;4.03;;;3.63;;
28545;SDS011;15749;49.606;8.738;2024-01-30T13:48:59;4.50;;;4.07;;
28545;SDS011;15749;49.606;8.738;2024-01-30T13:51:29;3.70;;;3.40;;
28545;SDS011;15749;49.606;8.738;2024-01-30T13:53:58;3.90;;;3.57;;
28545;SDS011;15749;49.606;8.738;2024-01-30T13:56:28;4.60;;;4.20;;
28545;SDS011;15749;49.606;8.738;2024-01-30T13:59:08;4.77;;;4.33;;
28545;SDS011;15749;49.606;8.738;2024-01-30T14:01:37;3.50;;;3.20;;
28545;SDS011;15749;49.606;8.738;2024-01-30T14:04:06;4.00;;;3.60;;
28545;SDS011;15749;49.606;8.738;2024-01-30T14:06:38;3.60;;;3.27;;
28545;SDS011;15749;49.606;8.738;2024-01-30T14:09:19;3.87;;;3.33;;
28545;SDS011;15749;49.606;8.738;2024-01-30T14:11:50;4.00;;;3.60;;
28545;SDS011;15749;49.606;8.738;2024-01-30T14:14:19;3.93;;;3.63;;
28545;SDS011;15749;49.606;8.738;2024-01-30T14:16:48;3.40;;;3.10;;
28545;SDS011;15749;49.606;8.738;2024-01-30T14:19:18;3.13;;;2.83;;
28545;SDS011;15749;49.606;8.738;2024-01-30T14:21:47;2.80;;;2.60;;
28545;SDS011;15749;49.606;8.738;2024-01-30T14:24:16;3.53;;;3.23;;
28545;SDS011;15749;49.606;8.738;2024-01-30T14:26:45;3.07;;;2.77;;
28545;SDS011;15749;49.606;8.738;2024-01-30T14:29:16;2.87;;;2.57;;
28545;SDS011;15749;49.606;8.738;2024-01-30T14:31:45;2.40;;;2.20;;
28545;SDS011;15749;49.606;8.738;2024-01-30T14:34:14;2.60;;;2.40;;
28545;SDS011;15749;49.606;8.738;2024-01-30T14:36:43;2.07;;;1.90;;
28545;SDS011;15749;49.606;8.738;2024-01-30T14:39:12;2.30;;;2.10;;
28545;SDS011;15749;49.606;8.738;2024-01-30T14:41:42;2.27;;;2.07;;
28545;SDS011;15749;49.606;8.738;2024-01-30T14:44:11;2.97;;;2.47;;
28545;SDS011;15749;49.606;8.738;2024-01-30T14:46:42;2.47;;;2.20;;
28545;SDS011;15749;49.606;8.738;2024-01-30T14:49:11;2.77;;;2.43;;
28545;SDS011;15749;49.606;8.738;2024-01-30T14:51:43;2.70;;;2.50;;
28545;SDS011;15749;49.606;8.738;2024-01-30T14:54:12;2.40;;;2.20;;
28545;SDS011;15749;49.606;8.738;2024-01-30T14:56:41;2.60;;;2.40;;
28545;SDS011;15749;49.606;8.738;2024-01-30T14:59:10;2.70;;;2.17;;
28545;SDS011;15749;49.606;8.738;2024-01-30T15:01:39;2.73;;;2.30;;
28545;SDS011;15749;49.606;8.738;2024-01-30T15:04:14;3.43;;;2.70;;
28545;SDS011;15749;49.606;8.738;2024-01-30T15:06:50;2.53;;;2.33;;